sensor_id;sensor_type;location;lat;lon;timestamp;pressure;altitude;pressure_sealevel;temperature;humidity
54407;BME280;40313;50.308;30.374;2024-02-28T00:00:26;100480.47;;;7.86;74.81
54407;BME280;40313;50.308;30.374;2024-02-28T00:02:53;100447.13;;;7.72;74.55
54407;BME280;40313;50.308;30.374;2024-02-28T00:05:20;100466.81;;;7.79;74.43
54407;BME280;40313;50.308;30.374;2024-02-28T00:07:46;100418.94;;;7.60;75.00
54407;BME280;40313;50.308;30.374;2024-02-28T00:10:13;100463.41;;;7.77;75.00
54407;BME280;40313;50.308;30.374;2024-02-28T00:12:41;100440.41;;;7.65;75.00
54407;BME280;40313;50.308;30.374;2024-02-28T00:15:08;100425.94;;;7.58;75.52
54407;BME280;40313;50.308;30.374;2024-02-28T00:17:38;100476.09;;;7.87;75.14
54407;BME280;40313;50.308;30.374;2024-02-28T00:20:08;100473.59;;;7.84;75.53
54407;BME280;40313;50.308;30.374;2024-02-28T00:22:37;100447.28;;;7.68;75.58
54407;BME280;40313;50.308;30.374;2024-02-28T00:25:04;100471.34;;;7.73;75.35
54407;BME280;40313;50.308;30.374;2024-02-28T00:27:32;100443.34;;;7.54;76.72
54407;BME280;40313;50.308;30.374;2024-02-28T00:30:00;100445.88;;;7.57;76.23
54407;BME280;40313;50.308;30.374;2024-02-28T00:32:26;100466.53;;;7.60;77.67
54407;BME280;40313;50.308;30.374;2024-02-28T00:34:53;100415.91;;;7.46;77.32
54407;BME280;40313;50.308;30.374;2024-02-28T00:37:19;100440.78;;;7.53;77.30
54407;BME280;40313;50.308;30.374;2024-02-28T00:39:46;100414.56;;;7.34;77.68
54407;BME280;40313;50.308;30.374;2024-02-28T00:42:13;100426.84;;;7.27;78.81
54407;BME280;40313;50.308;30.374;2024-02-28T00:44:40;100420.25;;;7.17;79.35
54407;BME280;40313;50.308;30.374;2024-02-28T00:47:09;100407.38;;;7.14;78.78
54407;BME280;40313;50.308;30.374;2024-02-28T00:49:36;100411.56;;;7.18;79.07
54407;BME280;40313;50.308;30.374;2024-02-28T00:52:03;100420.06;;;7.23;79.24
54407;BME280;40313;50.308;30.374;2024-02-28T00:54:30;100462.94;;;7.36;79.19
54407;BME280;40313;50.308;30.374;2024-02-28T00:56:57;100416.91;;;7.13;80.21
54407;BME280;40313;50.308;30.374;2024-02-28T00:59:25;100428.66;;;7.25;78.75
54407;BME280;40313;50.308;30.374;2024-02-28T01:01:51;100444.66;;;7.39;79.84
54407;BME280;40313;50.308;30.374;2024-02-28T01:04:19;100406.28;;;7.21;80.74
54407;BME280;40313;50.308;30.374;2024-02-28T01:06:46;100399.28;;;7.23;80.35
54407;BME280;40313;50.308;30.374;2024-02-28T01:09:13;100429.72;;;7.48;80.36
54407;BME280;40313;50.308;30.374;2024-02-28T01:11:39;100425.59;;;7.40;79.78
54407;BME280;40313;50.308;30.374;2024-02-28T01:14:06;100435.66;;;7.51;80.54
54407;BME280;40313;50.308;30.374;2024-02-28T01:16:32;100437.25;;;7.55;80.80
54407;BME280;40313;50.308;30.374;2024-02-28T01:18:59;100392.19;;;7.30;79.63
54407;BME280;40313;50.308;30.374;2024-02-28T01:21:27;100386.66;;;7.40;80.33
54407;BME280;40313;50.308;30.374;2024-02-28T01:23:53;100408.75;;;7.54;79.01
54407;BME280;40313;50.308;30.374;2024-02-28T01:26:20;100390.47;;;7.57;78.84
54407;BME280;40313;50.308;30.374;2024-02-28T01:28:47;100382.56;;;7.60;79.25
54407;BME280;40313;50.308;30.374;2024-02-28T01:31:14;100421.44;;;7.90;79.02
54407;BME280;40313;50.308;30.374;2024-02-28T01:33:40;100423.50;;;7.80;80.05
54407;BME280;40313;50.308;30.374;2024-02-28T01:36:07;100376.53;;;7.59;79.62
54407;BME280;40313;50.308;30.374;2024-02-28T01:38:35;100376.88;;;7.49;79.00
54407;BME280;40313;50.308;30.374;2024-02-28T01:41:01;100391.84;;;7.69;78.71
54407;BME280;40313;50.308;30.374;2024-02-28T01:43:29;100389.09;;;7.73;79.27
54407;BME280;40313;50.308;30.374;2024-02-28T01:45:56;100364.28;;;7.65;78.46
54407;BME280;40313;50.308;30.374;2024-02-28T01:48:23;100396.47;;;7.86;78.86
54407;BME280;40313;50.308;30.374;2024-02-28T01:50:50;100410.22;;;7.89;78.97
54407;BME280;40313;50.308;30.374;2024-02-28T01:53:16;100411.06;;;7.90;79.21
54407;BME280;40313;50.308;30.374;2024-02-28T01:55:44;100402.97;;;7.72;79.82
54407;BME280;40313;50.308;30.374;2024-02-28T01:58:11;100394.72;;;7.86;79.18
54407;BME280;40313;50.308;30.374;2024-02-28T02:00:39;100405.06;;;7.88;79.51
54407;BME280;40313;50.308;30.374;2024-02-28T02:03:06;100392.56;;;7.72;79.63
54407;BME280;40313;50.308;30.374;2024-02-28T02:05:33;100420.22;;;8.02;79.67
54407;BME280;40313;50.308;30.374;2024-02-28T02:08:05;100399.78;;;7.91;79.08
54407;BME280;40313;50.308;30.374;2024-02-28T02:10:32;100382.09;;;7.75;79.44
54407;BME280;40313;50.308;30.374;2024-02-28T02:13:05;100425.94;;;8.11;79.27
54407;BME280;40313;50.308;30.374;2024-02-28T02:15:32;100399.66;;;7.94;79.37
54407;BME280;40313;50.308;30.374;2024-02-28T02:17:59;100422.75;;;8.03;79.63
54407;BME280;40313;50.308;30.374;2024-02-28T02:20:26;100374.94;;;7.55;80.30
54407;BME280;40313;50.308;30.374;2024-02-28T02:22:54;100378.50;;;7.79;79.47
54407;BME280;40313;50.308;30.374;2024-02-28T02:25:21;100410.81;;;7.71;80.54
54407;BME280;40313;50.308;30.374;2024-02-28T02:27:48;100385.84;;;7.38;81.98
54407;BME280;40313;50.308;30.374;2024-02-28T02:30:14;100377.06;;;7.42;82.60
54407;BME280;40313;50.308;30.374;2024-02-28T02:32:41;100408.88;;;7.77;81.55
54407;BME280;40313;50.308;30.374;2024-02-28T02:35:08;100412.22;;;7.81;81.30
54407;BME280;40313;50.308;30.374;2024-02-28T02:37:34;100378.47;;;7.53;82.11
54407;BME280;40313;50.308;30.374;2024-02-28T02:40:03;100416.41;;;7.85;82.45
54407;BME280;40313;50.308;30.374;2024-02-28T02:42:30;100430.78;;;7.95;82.08
54407;BME280;40313;50.308;30.374;2024-02-28T02:44:56;100384.41;;;7.30;84.43
54407;BME280;40313;50.308;30.374;2024-02-28T02:47:23;100384.53;;;7.53;83.74
54407;BME280;40313;50.308;30.374;2024-02-28T02:49:49;100413.06;;;7.82;83.21
54407;BME280;40313;50.308;30.374;2024-02-28T02:52:16;100409.66;;;7.79;83.32
54407;BME280;40313;50.308;30.374;2024-02-28T02:54:42;100421.56;;;7.87;83.20
54407;BME280;40313;50.308;30.374;2024-02-28T02:57:10;100383.91;;;7.73;83.36
54407;BME280;40313;50.308;30.374;2024-02-28T02:59:37;100394.63;;;7.89;82.57
54407;BME280;40313;50.308;30.374;2024-02-28T03:02:04;100432.78;;;8.14;82.19
54407;BME280;40313;50.308;30.374;2024-02-28T03:04:31;100428.03;;;8.00;82.07
54407;BME280;40313;50.308;30.374;2024-02-28T03:06:57;100409.28;;;7.92;82.03
54407;BME280;40313;50.308;30.374;2024-02-28T03:09:24;100408.28;;;7.96;81.22
54407;BME280;40313;50.308;30.374;2024-02-28T03:11:51;100396.63;;;7.81;81.91
54407;BME280;40313;50.308;30.374;2024-02-28T03:14:19;100384.84;;;7.71;81.75
54407;BME280;40313;50.308;30.374;2024-02-28T03:16:47;100395.69;;;7.84;81.64
54407;BME280;40313;50.308;30.374;2024-02-28T03:19:14;100433.72;;;8.11;81.27
54407;BME280;40313;50.308;30.374;2024-02-28T03:21:41;100424.34;;;8.07;80.80
54407;BME280;40313;50.308;30.374;2024-02-28T03:24:07;100420.84;;;8.08;80.85
54407;BME280;40313;50.308;30.374;2024-02-28T03:26:34;100395.34;;;7.93;80.38
54407;BME280;40313;50.308;30.374;2024-02-28T03:29:01;100434.53;;;8.13;80.31
54407;BME280;40313;50.308;30.374;2024-02-28T03:31:29;100424.25;;;8.10;80.28
54407;BME280;40313;50.308;30.374;2024-02-28T03:33:56;100428.06;;;8.25;80.43
54407;BME280;40313;50.308;30.374;2024-02-28T03:36:22;100415.25;;;8.21;79.93
54407;BME280;40313;50.308;30.374;2024-02-28T03:38:49;100434.91;;;8.28;80.38
54407;BME280;40313;50.308;30.374;2024-02-28T03:41:16;100394.75;;;8.11;80.14
54407;BME280;40313;50.308;30.374;2024-02-28T03:43:42;100449.50;;;8.32;80.35
54407;BME280;40313;50.308;30.374;2024-02-28T03:46:09;100440.72;;;8.36;80.17
54407;BME280;40313;50.308;30.374;2024-02-28T03:48:37;100428.78;;;8.30;80.26
54407;BME280;40313;50.308;30.374;2024-02-28T03:51:03;100405.06;;;8.15;79.81
54407;BME280;40313;50.308;30.374;2024-02-28T03:53:30;100402.59;;;8.10;79.70
54407;BME280;40313;50.308;30.374;2024-02-28T03:55:57;100411.38;;;8.07;79.58
54407;BME280;40313;50.308;30.374;2024-02-28T03:58:24;100445.38;;;8.26;79.31
54407;BME280;40313;50.308;30.374;2024-02-28T04:00:50;100404.47;;;8.06;79.55
54407;BME280;40313;50.308;30.374;2024-02-28T04:03:17;100399.72;;;7.92;80.11
54407;BME280;40313;50.308;30.374;2024-02-28T04:05:45;100400.47;;;7.96;79.69
54407;BME280;40313;50.308;30.374;2024-02-28T04:08:11;100402.88;;;7.75;80.97
54407;BME280;40313;50.308;30.374;2024-02-28T04:10:38;100414.25;;;7.98;80.82
54407;BME280;40313;50.308;30.374;2024-02-28T04:13:04;100412.38;;;8.03;80.32
54407;BME280;40313;50.308;30.374;2024-02-28T04:15:32;100400.59;;;7.91;79.83
54407;BME280;40313;50.308;30.374;2024-02-28T04:17:59;100426.47;;;7.96;79.94
54407;BME280;40313;50.308;30.374;2024-02-28T04:20:25;100420.22;;;8.02;79.92
54407;BME280;40313;50.308;30.374;2024-02-28T04:22:54;100429.94;;;7.95;80.62
54407;BME280;40313;50.308;30.374;2024-02-28T04:25:20;100438.25;;;8.06;80.65
54407;BME280;40313;50.308;30.374;2024-02-28T04:27:47;100423.81;;;7.98;80.52
54407;BME280;40313;50.308;30.374;2024-02-28T04:30:15;100444.22;;;8.08;80.47
54407;BME280;40313;50.308;30.374;2024-02-28T04:32:41;100402.72;;;7.80;80.41
54407;BME280;40313;50.308;30.374;2024-02-28T04:35:08;100429.63;;;8.04;80.75
54407;BME280;40313;50.308;30.374;2024-02-28T04:37:35;100403.56;;;7.81;80.58
54407;BME280;40313;50.308;30.374;2024-02-28T04:40:03;100406.84;;;7.86;80.34
54407;BME280;40313;50.308;30.374;2024-02-28T04:42:31;100422.38;;;7.87;80.40
54407;BME280;40313;50.308;30.374;2024-02-28T04:44:58;100431.50;;;8.01;80.36
54407;BME280;40313;50.308;30.374;2024-02-28T04:47:25;100455.53;;;8.07;80.70
54407;BME280;40313;50.308;30.374;2024-02-28T04:49:51;100432.84;;;7.86;80.21
54407;BME280;40313;50.308;30.374;2024-02-28T04:52:18;100424.84;;;7.92;79.49
54407;BME280;40313;50.308;30.374;2024-02-28T04:54:44;100449.59;;;8.04;80.29
54407;BME280;40313;50.308;30.374;2024-02-28T04:57:12;100423.91;;;7.94;80.07
54407;BME280;40313;50.308;30.374;2024-02-28T04:59:39;100431.50;;;8.01;80.38
54407;BME280;40313;50.308;30.374;2024-02-28T05:02:07;100454.44;;;8.15;80.10
54407;BME280;40313;50.308;30.374;2024-02-28T05:04:34;100457.78;;;8.18;80.17
54407;BME280;40313;50.308;30.374;2024-02-28T05:07:00;100458.81;;;8.12;80.13
54407;BME280;40313;50.308;30.374;2024-02-28T05:09:27;100463.34;;;8.07;79.98
54407;BME280;40313;50.308;30.374;2024-02-28T05:11:53;100472.47;;;8.19;80.16
54407;BME280;40313;50.308;30.374;2024-02-28T05:14:21;100425.25;;;8.06;79.55
54407;BME280;40313;50.308;30.374;2024-02-28T05:16:48;100455.72;;;8.28;79.49
54407;BME280;40313;50.308;30.374;2024-02-28T05:19:14;100424.34;;;8.07;79.03
54407;BME280;40313;50.308;30.374;2024-02-28T05:21:43;100470.97;;;8.39;78.22
54407;BME280;40313;50.308;30.374;2024-02-28T05:24:10;100456.25;;;8.38;78.58
54407;BME280;40313;50.308;30.374;2024-02-28T05:26:37;100460.47;;;8.42;78.48
54407;BME280;40313;50.308;30.374;2024-02-28T05:29:04;100430.94;;;8.18;78.37
54407;BME280;40313;50.308;30.374;2024-02-28T05:31:34;100451.84;;;8.40;77.85
54407;BME280;40313;50.308;30.374;2024-02-28T05:34:02;100449.72;;;8.26;78.52
54407;BME280;40313;50.308;30.374;2024-02-28T05:36:29;100458.91;;;8.36;78.38
54407;BME280;40313;50.308;30.374;2024-02-28T05:38:57;100447.09;;;8.27;78.40
54407;BME280;40313;50.308;30.374;2024-02-28T05:41:24;100458.44;;;8.25;78.31
54407;BME280;40313;50.308;30.374;2024-02-28T05:43:51;100427.84;;;8.31;78.02
54407;BME280;40313;50.308;30.374;2024-02-28T05:46:18;100437.75;;;8.47;77.86
54407;BME280;40313;50.308;30.374;2024-02-28T05:48:47;100430.31;;;8.36;77.62
54407;BME280;40313;50.308;30.374;2024-02-28T05:51:13;100438.00;;;8.39;77.48
54407;BME280;40313;50.308;30.374;2024-02-28T05:53:40;100434.03;;;8.54;77.53
54407;BME280;40313;50.308;30.374;2024-02-28T05:56:08;100457.63;;;8.75;77.05
54407;BME280;40313;50.308;30.374;2024-02-28T05:58:40;100471.38;;;9.02;77.26
54407;BME280;40313;50.308;30.374;2024-02-28T06:01:06;100460.09;;;9.02;76.51
54407;BME280;40313;50.308;30.374;2024-02-28T06:03:34;100471.47;;;9.23;76.48
54407;BME280;40313;50.308;30.374;2024-02-28T06:06:02;100469.63;;;9.48;75.60
54407;BME280;40313;50.308;30.374;2024-02-28T06:08:31;100467.72;;;9.54;75.00
54407;BME280;40313;50.308;30.374;2024-02-28T06:10:57;100461.06;;;9.68;74.71
54407;BME280;40313;50.308;30.374;2024-02-28T06:13:24;100444.84;;;9.62;74.13
54407;BME280;40313;50.308;30.374;2024-02-28T06:15:50;100476.16;;;9.82;73.75
54407;BME280;40313;50.308;30.374;2024-02-28T06:18:17;100442.41;;;9.79;73.56
54407;BME280;40313;50.308;30.374;2024-02-28T06:20:43;100441.19;;;9.88;72.97
54407;BME280;40313;50.308;30.374;2024-02-28T06:23:11;100434.31;;;10.08;72.33
54407;BME280;40313;50.308;30.374;2024-02-28T06:25:38;100441.53;;;10.21;71.46
54407;BME280;40313;50.308;30.374;2024-02-28T06:28:05;100456.75;;;10.32;71.62
54407;BME280;40313;50.308;30.374;2024-02-28T06:30:32;100443.53;;;10.37;71.11
54407;BME280;40313;50.308;30.374;2024-02-28T06:32:59;100453.44;;;10.49;70.62
54407;BME280;40313;50.308;30.374;2024-02-28T06:35:26;100474.22;;;10.71;70.40
54407;BME280;40313;50.308;30.374;2024-02-28T06:37:52;100484.72;;;10.91;70.01
54407;BME280;40313;50.308;30.374;2024-02-28T06:40:21;100460.72;;;10.82;69.92
54407;BME280;40313;50.308;30.374;2024-02-28T06:42:48;100447.59;;;10.84;69.10
54407;BME280;40313;50.308;30.374;2024-02-28T06:45:14;100475.97;;;10.92;68.54
54407;BME280;40313;50.308;30.374;2024-02-28T06:47:41;100496.84;;;11.31;68.11
54407;BME280;40313;50.308;30.374;2024-02-28T06:50:10;100480.63;;;11.24;68.79
54407;BME280;40313;50.308;30.374;2024-02-28T06:52:37;100481.09;;;11.33;67.72
54407;BME280;40313;50.308;30.374;2024-02-28T06:55:04;100478.13;;;11.59;67.46
54407;BME280;40313;50.308;30.374;2024-02-28T06:57:36;100505.78;;;11.83;66.22
54407;BME280;40313;50.308;30.374;2024-02-28T07:00:05;100503.78;;;11.88;65.88
54407;BME280;40313;50.308;30.374;2024-02-28T07:02:33;100465.22;;;11.74;65.08
54407;BME280;40313;50.308;30.374;2024-02-28T07:05:00;100491.25;;;11.96;65.08
54407;BME280;40313;50.308;30.374;2024-02-28T07:07:26;100466.31;;;11.87;64.95
54407;BME280;40313;50.308;30.374;2024-02-28T07:09:53;100500.25;;;12.08;64.40
54407;BME280;40313;50.308;30.374;2024-02-28T07:12:19;100463.63;;;12.25;64.04
54407;BME280;40313;50.308;30.374;2024-02-28T07:14:47;100490.09;;;12.19;62.47
54407;BME280;40313;50.308;30.374;2024-02-28T07:17:14;100497.78;;;12.57;62.85
54407;BME280;40313;50.308;30.374;2024-02-28T07:19:40;100495.94;;;12.77;62.22
54407;BME280;40313;50.308;30.374;2024-02-28T07:22:07;100463.31;;;12.67;61.82
54407;BME280;40313;50.308;30.374;2024-02-28T07:24:34;100499.06;;;13.17;61.32
54407;BME280;40313;50.308;30.374;2024-02-28T07:27:00;100487.75;;;13.32;60.58
54407;BME280;40313;50.308;30.374;2024-02-28T07:29:27;100465.63;;;13.22;60.39
54407;BME280;40313;50.308;30.374;2024-02-28T07:31:55;100473.47;;;13.06;60.54
54407;BME280;40313;50.308;30.374;2024-02-28T07:34:22;100496.84;;;13.43;59.08
54407;BME280;40313;50.308;30.374;2024-02-28T07:36:48;100493.34;;;12.93;60.30
54407;BME280;40313;50.308;30.374;2024-02-28T07:39:15;100512.56;;;13.43;59.37
54407;BME280;40313;50.308;30.374;2024-02-28T07:41:42;100475.47;;;13.17;59.76
54407;BME280;40313;50.308;30.374;2024-02-28T07:44:08;100499.16;;;13.65;60.13
54407;BME280;40313;50.308;30.374;2024-02-28T07:46:36;100494.22;;;13.43;58.09
54407;BME280;40313;50.308;30.374;2024-02-28T07:49:04;100473.91;;;13.30;58.45
54407;BME280;40313;50.308;30.374;2024-02-28T07:51:30;100497.31;;;13.97;57.93
54407;BME280;40313;50.308;30.374;2024-02-28T07:53:57;100490.56;;;13.77;57.22
54407;BME280;40313;50.308;30.374;2024-02-28T07:56:24;100492.66;;;14.03;57.25
54407;BME280;40313;50.308;30.374;2024-02-28T07:58:50;100493.66;;;14.16;57.23
54407;BME280;40313;50.308;30.374;2024-02-28T08:01:19;100489.31;;;14.31;57.66
54407;BME280;40313;50.308;30.374;2024-02-28T08:03:47;100499.81;;;14.76;56.39
54407;BME280;40313;50.308;30.374;2024-02-28T08:06:15;100472.25;;;14.68;55.38
54407;BME280;40313;50.308;30.374;2024-02-28T08:08:44;100493.84;;;15.02;55.79
54407;BME280;40313;50.308;30.374;2024-02-28T08:11:10;100503.03;;;14.81;56.11
54407;BME280;40313;50.308;30.374;2024-02-28T08:13:37;100485.56;;;14.35;54.31
54407;BME280;40313;50.308;30.374;2024-02-28T08:16:04;100508.09;;;14.98;54.34
54407;BME280;40313;50.308;30.374;2024-02-28T08:18:33;100511.09;;;14.92;55.41
54407;BME280;40313;50.308;30.374;2024-02-28T08:21:00;100507.91;;;15.16;54.75
54407;BME280;40313;50.308;30.374;2024-02-28T08:23:29;100482.59;;;14.56;53.28
54407;BME280;40313;50.308;30.374;2024-02-28T08:25:56;100498.50;;;14.68;53.81
54407;BME280;40313;50.308;30.374;2024-02-28T08:28:22;100501.44;;;14.48;54.10
54407;BME280;40313;50.308;30.374;2024-02-28T08:30:49;100491.06;;;14.61;53.49
54407;BME280;40313;50.308;30.374;2024-02-28T08:33:16;100491.13;;;14.45;53.87
54407;BME280;40313;50.308;30.374;2024-02-28T08:35:42;100507.16;;;14.71;53.36
54407;BME280;40313;50.308;30.374;2024-02-28T08:38:09;100507.59;;;14.77;54.29
54407;BME280;40313;50.308;30.374;2024-02-28T08:40:37;100473.75;;;14.73;53.04
54407;BME280;40313;50.308;30.374;2024-02-28T08:43:04;100509.03;;;14.52;52.92
54407;BME280;40313;50.308;30.374;2024-02-28T08:45:31;100476.50;;;14.55;53.53
54407;BME280;40313;50.308;30.374;2024-02-28T08:47:57;100476.56;;;14.69;53.76
54407;BME280;40313;50.308;30.374;2024-02-28T08:50:26;100469.94;;;14.48;53.31
54407;BME280;40313;50.308;30.374;2024-02-28T08:52:53;100489.22;;;14.63;54.09
54407;BME280;40313;50.308;30.374;2024-02-28T08:55:19;100478.56;;;14.95;53.62
54407;BME280;40313;50.308;30.374;2024-02-28T08:57:48;100494.75;;;15.30;53.14
54407;BME280;40313;50.308;30.374;2024-02-28T09:00:15;100505.84;;;15.07;53.46
54407;BME280;40313;50.308;30.374;2024-02-28T09:02:43;100472.44;;;14.94;52.98
54407;BME280;40313;50.308;30.374;2024-02-28T09:05:09;100471.78;;;14.46;53.66
54407;BME280;40313;50.308;30.374;2024-02-28T09:07:36;100517.59;;;15.01;53.85
54407;BME280;40313;50.308;30.374;2024-02-28T09:10:03;100507.16;;;14.85;53.02
54407;BME280;40313;50.308;30.374;2024-02-28T09:12:31;100484.44;;;14.69;53.65
54407;BME280;40313;50.308;30.374;2024-02-28T09:14:58;100494.56;;;15.04;52.85
54407;BME280;40313;50.308;30.374;2024-02-28T09:17:25;100501.13;;;14.68;53.13
54407;BME280;40313;50.308;30.374;2024-02-28T09:19:52;100513.34;;;15.13;52.57
54407;BME280;40313;50.308;30.374;2024-02-28T09:22:19;100504.53;;;15.14;53.06
54407;BME280;40313;50.308;30.374;2024-02-28T09:24:46;100494.50;;;15.06;53.05
54407;BME280;40313;50.308;30.374;2024-02-28T09:27:13;100512.44;;;14.99;53.41
54407;BME280;40313;50.308;30.374;2024-02-28T09:29:39;100513.44;;;14.68;54.20
54407;BME280;40313;50.308;30.374;2024-02-28T09:32:08;100512.50;;;14.83;53.38
54407;BME280;40313;50.308;30.374;2024-02-28T09:34:35;100510.22;;;14.77;53.21
54407;BME280;40313;50.308;30.374;2024-02-28T09:37:01;100477.44;;;14.54;53.32
54407;BME280;40313;50.308;30.374;2024-02-28T09:39:29;100520.28;;;14.71;53.53
54407;BME280;40313;50.308;30.374;2024-02-28T09:41:56;100486.50;;;14.79;54.34
54407;BME280;40313;50.308;30.374;2024-02-28T09:44:23;100496.94;;;15.09;53.64
54407;BME280;40313;50.308;30.374;2024-02-28T09:46:51;100492.91;;;15.03;54.11
54407;BME280;40313;50.308;30.374;2024-02-28T09:49:19;100514.47;;;14.94;53.71
54407;BME280;40313;50.308;30.374;2024-02-28T09:51:48;100526.50;;;14.98;53.00
54407;BME280;40313;50.308;30.374;2024-02-28T09:54:16;100501.53;;;14.77;53.65
54407;BME280;40313;50.308;30.374;2024-02-28T09:56:42;100488.13;;;14.51;54.20
54407;BME280;40313;50.308;30.374;2024-02-28T09:59:10;100489.72;;;14.39;52.98
54407;BME280;40313;50.308;30.374;2024-02-28T10:01:42;100484.84;;;14.92;54.00
54407;BME280;40313;50.308;30.374;2024-02-28T10:04:10;100472.06;;;14.86;54.19
54407;BME280;40313;50.308;30.374;2024-02-28T10:06:39;100504.25;;;14.75;53.87
54407;BME280;40313;50.308;30.374;2024-02-28T10:09:06;100495.78;;;14.99;53.82
54407;BME280;40313;50.308;30.374;2024-02-28T10:11:35;100470.56;;;14.96;53.70
54407;BME280;40313;50.308;30.374;2024-02-28T10:14:02;100487.16;;;15.26;53.61
54407;BME280;40313;50.308;30.374;2024-02-28T10:16:29;100466.69;;;15.31;53.57
54407;BME280;40313;50.308;30.374;2024-02-28T10:18:56;100501.69;;;15.31;53.70
54407;BME280;40313;50.308;30.374;2024-02-28T10:21:22;100490.44;;;15.44;53.01
54407;BME280;40313;50.308;30.374;2024-02-28T10:23:52;100485.69;;;15.49;53.01
54407;BME280;40313;50.308;30.374;2024-02-28T10:26:19;100474.06;;;15.95;53.05
54407;BME280;40313;50.308;30.374;2024-02-28T10:28:46;100455.97;;;16.03;52.93
54407;BME280;40313;50.308;30.374;2024-02-28T10:31:12;100470.19;;;16.13;53.02
54407;BME280;40313;50.308;30.374;2024-02-28T10:33:41;100446.91;;;16.07;52.31
54407;BME280;40313;50.308;30.374;2024-02-28T10:36:09;100457.69;;;16.17;52.66
54407;BME280;40313;50.308;30.374;2024-02-28T10:38:37;100457.38;;;16.34;54.12
54407;BME280;40313;50.308;30.374;2024-02-28T10:41:05;100439.81;;;16.22;53.11
54407;BME280;40313;50.308;30.374;2024-02-28T10:43:31;100477.00;;;16.69;53.02
54407;BME280;40313;50.308;30.374;2024-02-28T10:46:00;100467.31;;;16.82;52.37
54407;BME280;40313;50.308;30.374;2024-02-28T10:48:27;100463.22;;;16.91;52.48
54407;BME280;40313;50.308;30.374;2024-02-28T10:50:54;100443.41;;;16.47;53.05
54407;BME280;40313;50.308;30.374;2024-02-28T10:53:21;100426.53;;;16.23;53.40
54407;BME280;40313;50.308;30.374;2024-02-28T10:55:49;100431.06;;;15.81;52.93
54407;BME280;40313;50.308;30.374;2024-02-28T10:58:18;100429.94;;;15.71;52.97
54407;BME280;40313;50.308;30.374;2024-02-28T11:00:45;100432.13;;;15.64;53.04
54407;BME280;40313;50.308;30.374;2024-02-28T11:03:13;100413.50;;;15.82;53.11
54407;BME280;40313;50.308;30.374;2024-02-28T11:05:43;100410.28;;;15.77;53.31
54407;BME280;40313;50.308;30.374;2024-02-28T11:08:19;100444.50;;;15.77;53.06
54407;BME280;40313;50.308;30.374;2024-02-28T11:10:47;100425.25;;;16.03;52.58
54407;BME280;40313;50.308;30.374;2024-02-28T11:13:22;100416.06;;;15.96;53.28
54407;BME280;40313;50.308;30.374;2024-02-28T11:15:49;100427.75;;;15.92;53.29
54407;BME280;40313;50.308;30.374;2024-02-28T11:18:15;100432.66;;;15.84;53.96
54407;BME280;40313;50.308;30.374;2024-02-28T11:20:42;100404.88;;;15.11;53.56
54407;BME280;40313;50.308;30.374;2024-02-28T11:23:10;100407.78;;;15.48;53.09
54407;BME280;40313;50.308;30.374;2024-02-28T11:25:36;100440.88;;;15.65;53.68
54407;BME280;40313;50.308;30.374;2024-02-28T11:28:04;100431.09;;;15.94;53.16
54407;BME280;40313;50.308;30.374;2024-02-28T11:30:33;100404.69;;;15.68;53.63
54407;BME280;40313;50.308;30.374;2024-02-28T11:33:00;100437.97;;;16.10;53.12
54407;BME280;40313;50.308;30.374;2024-02-28T11:35:26;100415.03;;;16.24;53.05
54407;BME280;40313;50.308;30.374;2024-02-28T11:37:54;100411.78;;;16.21;53.57
54407;BME280;40313;50.308;30.374;2024-02-28T11:40:22;100421.56;;;16.19;53.39
54407;BME280;40313;50.308;30.374;2024-02-28T11:42:50;100384.88;;;15.90;53.27
54407;BME280;40313;50.308;30.374;2024-02-28T11:45:17;100413.44;;;15.96;53.15
54407;BME280;40313;50.308;30.374;2024-02-28T11:47:45;100371.50;;;15.26;54.40
54407;BME280;40313;50.308;30.374;2024-02-28T11:50:12;100382.91;;;16.06;53.79
54407;BME280;40313;50.308;30.374;2024-02-28T11:52:40;100392.94;;;16.40;53.37
54407;BME280;40313;50.308;30.374;2024-02-28T11:55:07;100372.06;;;16.50;54.42
54407;BME280;40313;50.308;30.374;2024-02-28T11:57:33;100393.34;;;16.72;52.97
54407;BME280;40313;50.308;30.374;2024-02-28T12:00:03;100388.16;;;16.97;52.84
54407;BME280;40313;50.308;30.374;2024-02-28T12:02:30;100396.41;;;16.66;52.68
54407;BME280;40313;50.308;30.374;2024-02-28T12:05:02;100404.91;;;16.96;52.31
54407;BME280;40313;50.308;30.374;2024-02-28T12:07:29;100383.34;;;17.15;51.92
54407;BME280;40313;50.308;30.374;2024-02-28T12:09:56;100398.34;;;17.14;52.11
54407;BME280;40313;50.308;30.374;2024-02-28T12:12:23;100386.66;;;17.05;52.37
54407;BME280;40313;50.308;30.374;2024-02-28T12:14:50;100376.63;;;17.10;52.60
54407;BME280;40313;50.308;30.374;2024-02-28T12:17:17;100388.25;;;17.08;52.16
54407;BME280;40313;50.308;30.374;2024-02-28T12:19:44;100385.06;;;17.40;52.35
54407;BME280;40313;50.308;30.374;2024-02-28T12:22:12;100358.97;;;17.24;52.30
54407;BME280;40313;50.308;30.374;2024-02-28T12:24:39;100398.28;;;17.27;52.63
54407;BME280;40313;50.308;30.374;2024-02-28T12:27:06;100368.53;;;17.01;51.95
54407;BME280;40313;50.308;30.374;2024-02-28T12:29:33;100359.97;;;17.34;51.32
54407;BME280;40313;50.308;30.374;2024-02-28T12:31:59;100360.13;;;17.44;50.99
54407;BME280;40313;50.308;30.374;2024-02-28T12:34:26;100374.09;;;17.57;51.47
54407;BME280;40313;50.308;30.374;2024-02-28T12:36:52;100364.53;;;17.56;50.77
54407;BME280;40313;50.308;30.374;2024-02-28T12:39:20;100366.81;;;17.13;50.70
54407;BME280;40313;50.308;30.374;2024-02-28T12:41:48;100357.50;;;17.20;51.40
54407;BME280;40313;50.308;30.374;2024-02-28T12:44:14;100380.00;;;17.37;50.94